Hlavní strana
METAR-TAF:

METAR-TAF

Letiště :

Karaganda, Kazachstán

zeměpisná šířka: 49-48N, zeměpisná délka: 073-09E, výška: 553 m

Aktuální stav počasí

Zpráva byla vytvořena před 42 minutami, v 11:30 UTC
Severní vítr 8 kt, proměnlivý mezi severozápadním a severoseverovýchodním
Teplota 12°C
Vlhkost vzduchu 28%
Tlak 1016 hPa
Viditelnost 10 km a více
Žádná oblačnost pod 1500 m, nevyskytují se cumulonimby.

METAR: UAKK 231130Z 35004MPS 320V020 CAVOK 12/M06 Q1016 R23/0///70 NOSIG RMK QFE715/0954

Čas: 18:12 (12:12 UTC)

Předpověď počasí

Zpráva byla vytvořena před 1 hodinou a 12 minutami, v 11:00 UTC
Předpověď platná od 23 v 12 UTC do 24 v 12 UTC
vítr z různých směrů 4 kt
Viditelnost 10 km a více
Polojasno ve výšce 4000 ft
Oblačno až skoro zataženo ve výšce 10000 ft
Dočasný
od 23 v 12 UTC do 23 v 15 UTC
Severozápadní vítr 10 kt

TAF: UAKK 231100Z 2312/2412 VRB02MPS 9999 SCT040 BKN100 TX12/2410Z TNM04/2323Z TEMPO 2312/2315 32005MPS

Stav a předpovědi počasí z více než 4 000 letišť (zprávy METAR a TAF).

Červené a žluté tečky na mapě představují dostupné meteorologické stanice.

Když kurzor umístíte na tečku, zobrazí se název stanice.

Pak kliknutím zobrazíte stav a předpověď počasí.

Chcete-li změnit mapu, kliknutím na zelené tlačítko se znaménkem +mapu přiblížíte, kliknutím na zelené tlačítko se znaménkem – mapu oddálíte a kliknutím na zelené šipky přejdete na sousední mapy.


METAR-TAF: